Nearby METAR Reports

 

LEVT - Vitoria, Spain
Distance from station: O 10km
Actualización: 05/07/2022 05:00
Muy nuboso
Muy nuboso
 Viento del O
Viento: O 2 km/h
Temperatura: 15°C
Rocío: 13°C
Humedad: 88%
Barómetro: 1023 hPa
Clouds: Muy nuboso
Visibility: 10 km
Cloud details: Few Clouds 366 m
Muy nuboso 518 m
2022/07/05 03:00 LEVT 050300Z 28001KT 9999 FEW012 BKN017 15/13 Q1023
LELO - Logrono/Agoncill, Spain
Distance from station: SSE 51km
Actualización: 05/07/2022 05:00
Despejado
Despejado
 Viento del O
Viento: O 15 km/h
Temperatura: 16°C
Rocío: 12°C
Humedad: 77%
Barómetro: 1022 hPa
Resumen: Despejado
Visibility: greater than 10 km
2022/07/05 03:00 LELO 050300Z AUTO 27008KT CAVOK 16/12 Q1022
LEBB - Bilbao/Sondica, Spain
Distance from station: NNO 54km
Actualización: 05/07/2022 05:00
Muy nuboso
Muy nuboso
 Viento del calm
Viento: Calma
Temperatura: 18°C
Rocío: 17°C
Humedad: 94%
Barómetro: 1023 hPa
Clouds: Muy nuboso
Visibility: 10 km
Cloud details: Parcialmente nuboso 518 m
Muy nuboso 1463 m
2022/07/05 03:00 LEBB 050300Z 00000KT 9999 SCT017 BKN048 18/17 Q1023 NOSIG
 
LEPP - Pamplona/Noain, Spain
Distance from station: E 78km
Actualización: 05/07/2022 05:00
Cubierto
Cubierto
 Viento del NO
Viento: NO 17 km/h
Temperatura: 17°C
Rocío: 13°C
Humedad: 77%
Barómetro: 1022 hPa
Clouds: Cubierto
Visibility: 10 km
Cloud details: Cubierto 549 m
2022/07/05 03:00 LEPP 050300Z AUTO 32009KT 280V350 9999 OVC018 17/13 Q1022
LESO - San Sebastian/Fu, Spain
Distance from station: NE 85km
Actualización: 05/07/2022 05:00
Cubierto
Cubierto
 Viento del SSO
Viento: SSO 7 km/h
Temperatura: 19°C
Rocío: 17°C
Humedad: 88%
Barómetro: 1022 hPa
Clouds: Cubierto
Visibility: 10 km
Cloud details: Muy nuboso 762 m
Cubierto 1189 m
2022/07/05 03:00 LESO 050300Z AUTO 20004KT 9999 BKN025 OVC039 19/17 Q1022
LEBG - Burgos/Villafria, Spain
Distance from station: SO 100km
Actualización: 05/07/2022 05:00
Cubierto
Cubierto
 Viento del NE
Viento: NE 19 km/h
Temperatura: 13°C
Rocío: 11°C
Humedad: 88%
Barómetro: 1023 hPa
Clouds: Cubierto
Visibility: 10 km
Cloud details: Cubierto 366 m
2022/07/05 03:00 LEBG 050300Z AUTO 05010KT 020V080 9999 OVC012 13/11 Q1023
 
LFBZ - Biarritz/Anglet, France
Distance from station: NE 111km
Actualización: 05/07/2022 05:00
Cubierto
Cubierto
 Viento del SO
Viento: SO 6 km/h
Temperatura: 18°C
Rocío: 17°C
Humedad: 94%
Barómetro: 1022 hPa
Clouds: Cubierto
Visibility: 10 km
Cloud details: Muy nuboso 396 m
Muy nuboso 640 m
Cubierto 1067 m
2022/07/05 03:00 LFBZ 050300Z AUTO 23003KT 200V270 9999 BKN013 BKN021 OVC035 18/17 Q1022 BECMG BKN030
LEXJ - Santander/Paraya, Spain
Distance from station: ONO 117km
Actualización: 05/07/2022 05:00
Cubierto
Cubierto
 Viento del S
Viento: S 6 km/h
Temperatura: 17°C
Rocío: 15°C
Humedad: 88%
Barómetro: 1023 hPa
Clouds: Cubierto
Visibility: 10 km
Cloud details: Muy nuboso 671 m
Cubierto 1036 m
2022/07/05 03:00 LEXJ 050300Z AUTO 19003KT 9999 BKN022 OVC034 17/15 Q1023